<?xml version="1.0" encoding="UTF-8" standalone="yes" ?> 
<gpx version="1.0" creator="quaeldich.de Tourenplaner http://www.quaeldich.de"   xmlns:xsi="http://www.w3.org/2001/XMLSchema-instance"   xmlns="http://www.topografix.com/GPX/1/0"   xsi:schemaLocation="http://www.topografix.com/GPX/1/0 http://www.topografix.com/GPX/1/0/gpx.xsd">
   <name>pass_726_771</name> 
   <author>quaeldich.de Tourenplaner</author>
   <email>redaktion@quaeldich.de</email> 
   <url>http://www.quaeldich.de</url> 
   <time>2022-08-12T08:45:44Z</time> 
   <bounds minlat="47.985054" minlon="7.1203861" maxlat="48.0461349" maxlon="7.2077689"></bounds> 
   <wpt lat="47.985054" lon="7.1210332">
      <name>Petit Ballon</name> 
      <sym>Golf Course</sym> 
   </wpt>
   <trk>
      <name>pass_726_771</name>
      <trkseg>
         <trkpt lat="48.0461349" lon="7.207665">
            <ele>309.0</ele>
            <time>2022-08-12T08:45:00Z</time>
         </trkpt>
         <trkpt lat="48.0458641" lon="7.2077689">
            <ele>309.1</ele>
            <time>2022-08-12T08:45:06Z</time>
         </trkpt>
         <trkpt lat="48.0456314" lon="7.2076921">
            <ele>309.6</ele>
            <time>2022-08-12T08:45:10Z</time>
         </trkpt>
         <trkpt lat="48.0446396" lon="7.206531">
            <ele>312.9</ele>
            <time>2022-08-12T08:45:36Z</time>
         </trkpt>
         <trkpt lat="48.0443192" lon="7.2060947">
            <ele>310.0</ele>
            <time>2022-08-12T08:45:44Z</time>
         </trkpt>
         <trkpt lat="48.0443192" lon="7.2060947">
            <ele>310.0</ele>
            <time>2022-08-12T08:45:44Z</time>
         </trkpt>
         <trkpt lat="48.0443153" lon="7.2060952">
            <ele>310.0</ele>
            <time>2022-08-12T08:45:44Z</time>
         </trkpt>
         <trkpt lat="48.0436363" lon="7.2051339">
            <ele>317.9</ele>
            <time>2022-08-12T08:46:03Z</time>
         </trkpt>
         <trkpt lat="48.0433846" lon="7.204844">
            <ele>318.2</ele>
            <time>2022-08-12T08:46:09Z</time>
         </trkpt>
         <trkpt lat="48.0425072" lon="7.2040911">
            <ele>320.5</ele>
            <time>2022-08-12T08:46:30Z</time>
         </trkpt>
         <trkpt lat="48.0421944" lon="7.2039042">
            <ele>321.6</ele>
            <time>2022-08-12T08:46:36Z</time>
         </trkpt>
         <trkpt lat="48.0414848" lon="7.2036061">
            <ele>323.0</ele>
            <time>2022-08-12T08:46:51Z</time>
         </trkpt>
         <trkpt lat="48.040905" lon="7.2034101">
            <ele>326.2</ele>
            <time>2022-08-12T08:47:03Z</time>
         </trkpt>
         <trkpt lat="48.0405998" lon="7.2033672">
            <ele>327.0</ele>
            <time>2022-08-12T08:47:09Z</time>
         </trkpt>
         <trkpt lat="48.0378304" lon="7.203259">
            <ele>337.0</ele>
            <time>2022-08-12T08:48:05Z</time>
         </trkpt>
         <trkpt lat="48.0376968" lon="7.2032685">
            <ele>337.0</ele>
            <time>2022-08-12T08:48:08Z</time>
         </trkpt>
         <trkpt lat="48.0376968" lon="7.203269">
            <ele>337.0</ele>
            <time>2022-08-12T08:48:08Z</time>
         </trkpt>
         <trkpt lat="48.0376968" lon="7.2032685">
            <ele>337.0</ele>
            <time>2022-08-12T08:48:08Z</time>
         </trkpt>
         <trkpt lat="48.0376549" lon="7.2034302">
            <ele>337.3</ele>
            <time>2022-08-12T08:48:10Z</time>
         </trkpt>
         <trkpt lat="48.0374641" lon="7.2037349">
            <ele>338.2</ele>
            <time>2022-08-12T08:48:15Z</time>
         </trkpt>
         <trkpt lat="48.0371628" lon="7.2038698">
            <ele>339.9</ele>
            <time>2022-08-12T08:48:22Z</time>
         </trkpt>
         <trkpt lat="48.0368271" lon="7.2038651">
            <ele>341.5</ele>
            <time>2022-08-12T08:48:28Z</time>
         </trkpt>
         <trkpt lat="48.0361443" lon="7.203742">
            <ele>341.6</ele>
            <time>2022-08-12T08:48:42Z</time>
         </trkpt>
         <trkpt lat="48.0339584" lon="7.2028279">
            <ele>346.8</ele>
            <time>2022-08-12T08:49:28Z</time>
         </trkpt>
         <trkpt lat="48.0329819" lon="7.2026982">
            <ele>351.4</ele>
            <time>2022-08-12T08:49:47Z</time>
         </trkpt>
         <trkpt lat="48.0327911" lon="7.2025638">
            <ele>352.5</ele>
            <time>2022-08-12T08:49:52Z</time>
         </trkpt>
         <trkpt lat="48.0325851" lon="7.2023182">
            <ele>353.5</ele>
            <time>2022-08-12T08:49:57Z</time>
         </trkpt>
         <trkpt lat="48.0313721" lon="7.2007141">
            <ele>352.7</ele>
            <time>2022-08-12T08:50:29Z</time>
         </trkpt>
         <trkpt lat="48.0310936" lon="7.200501">
            <ele>354.0</ele>
            <time>2022-08-12T08:50:36Z</time>
         </trkpt>
         <trkpt lat="48.030365" lon="7.2002501">
            <ele>357.1</ele>
            <time>2022-08-12T08:50:51Z</time>
         </trkpt>
         <trkpt lat="48.029644" lon="7.1998301">
            <ele>362.3</ele>
            <time>2022-08-12T08:51:06Z</time>
         </trkpt>
         <trkpt lat="48.0292625" lon="7.199728">
            <ele>364.7</ele>
            <time>2022-08-12T08:51:14Z</time>
         </trkpt>
         <trkpt lat="48.0285683" lon="7.199626">
            <ele>367.0</ele>
            <time>2022-08-12T08:51:28Z</time>
         </trkpt>
         <trkpt lat="48.0285683" lon="7.199626">
            <ele>367.0</ele>
            <time>2022-08-12T08:51:28Z</time>
         </trkpt>
         <trkpt lat="48.0285492" lon="7.1995859">
            <ele>367.1</ele>
            <time>2022-08-12T08:51:28Z</time>
         </trkpt>
         <trkpt lat="48.0282784" lon="7.1994128">
            <ele>368.0</ele>
            <time>2022-08-12T08:51:34Z</time>
         </trkpt>
         <trkpt lat="48.0281525" lon="7.1993151">
            <ele>368.1</ele>
            <time>2022-08-12T08:51:37Z</time>
         </trkpt>
         <trkpt lat="48.0276909" lon="7.199017">
            <ele>368.7</ele>
            <time>2022-08-12T08:51:47Z</time>
         </trkpt>
         <trkpt lat="48.0275307" lon="7.1989241">
            <ele>369.3</ele>
            <time>2022-08-12T08:51:51Z</time>
         </trkpt>
         <trkpt lat="48.0273666" lon="7.198822">
            <ele>369.4</ele>
            <time>2022-08-12T08:51:54Z</time>
         </trkpt>
         <trkpt lat="48.0270653" lon="7.1986222">
            <ele>370.8</ele>
            <time>2022-08-12T08:52:01Z</time>
         </trkpt>
         <trkpt lat="48.0269318" lon="7.1985092">
            <ele>371.9</ele>
            <time>2022-08-12T08:52:04Z</time>
         </trkpt>
         <trkpt lat="48.0266342" lon="7.1982388">
            <ele>373.0</ele>
            <time>2022-08-12T08:52:11Z</time>
         </trkpt>
         <trkpt lat="48.026474" lon="7.1980681">
            <ele>373.6</ele>
            <time>2022-08-12T08:52:15Z</time>
         </trkpt>
         <trkpt lat="48.026329" lon="7.1979022">
            <ele>373.7</ele>
            <time>2022-08-12T08:52:19Z</time>
         </trkpt>
         <trkpt lat="48.0261879" lon="7.197762">
            <ele>373.7</ele>
            <time>2022-08-12T08:52:22Z</time>
         </trkpt>
         <trkpt lat="48.0260162" lon="7.197618">
            <ele>374.7</ele>
            <time>2022-08-12T08:52:26Z</time>
         </trkpt>
         <trkpt lat="48.0258827" lon="7.1974921">
            <ele>375.2</ele>
            <time>2022-08-12T08:52:29Z</time>
         </trkpt>
         <trkpt lat="48.0257454" lon="7.1973729">
            <ele>375.3</ele>
            <time>2022-08-12T08:52:32Z</time>
         </trkpt>
         <trkpt lat="48.0256042" lon="7.197279">
            <ele>376.3</ele>
            <time>2022-08-12T08:52:35Z</time>
         </trkpt>
         <trkpt lat="48.0254593" lon="7.1972051">
            <ele>377.3</ele>
            <time>2022-08-12T08:52:38Z</time>
         </trkpt>
         <trkpt lat="48.0253143" lon="7.1971402">
            <ele>378.3</ele>
            <time>2022-08-12T08:52:41Z</time>
         </trkpt>
         <trkpt lat="48.0248413" lon="7.1969409">
            <ele>381.7</ele>
            <time>2022-08-12T08:52:51Z</time>
         </trkpt>
         <trkpt lat="48.0246773" lon="7.1968818">
            <ele>382.8</ele>
            <time>2022-08-12T08:52:55Z</time>
         </trkpt>
         <trkpt lat="48.0243912" lon="7.1967902">
            <ele>384.3</ele>
            <time>2022-08-12T08:53:01Z</time>
         </trkpt>
         <trkpt lat="48.0242538" lon="7.196733">
            <ele>384.4</ele>
            <time>2022-08-12T08:53:03Z</time>
         </trkpt>
         <trkpt lat="48.0241318" lon="7.19664">
            <ele>384.9</ele>
            <time>2022-08-12T08:53:06Z</time>
         </trkpt>
         <trkpt lat="48.024025" lon="7.1965342">
            <ele>386.0</ele>
            <time>2022-08-12T08:53:09Z</time>
         </trkpt>
         <trkpt lat="48.0237236" lon="7.1961122">
            <ele>387.9</ele>
            <time>2022-08-12T08:53:17Z</time>
         </trkpt>
         <trkpt lat="48.0236092" lon="7.1959772">
            <ele>388.0</ele>
            <time>2022-08-12T08:53:20Z</time>
         </trkpt>
         <trkpt lat="48.0234833" lon="7.195848">
            <ele>388.1</ele>
            <time>2022-08-12T08:53:23Z</time>
         </trkpt>
         <trkpt lat="48.0231857" lon="7.1955791">
            <ele>388.1</ele>
            <time>2022-08-12T08:53:30Z</time>
         </trkpt>
         <trkpt lat="48.0230179" lon="7.1954131">
            <ele>387.7</ele>
            <time>2022-08-12T08:53:34Z</time>
         </trkpt>
         <trkpt lat="48.0228882" lon="7.1952529">
            <ele>387.8</ele>
            <time>2022-08-12T08:53:37Z</time>
         </trkpt>
         <trkpt lat="48.0226555" lon="7.1948929">
            <ele>387.9</ele>
            <time>2022-08-12T08:53:44Z</time>
         </trkpt>
         <trkpt lat="48.0225372" lon="7.1947241">
            <ele>388.5</ele>
            <time>2022-08-12T08:53:47Z</time>
         </trkpt>
         <trkpt lat="48.0223808" lon="7.194509">
            <ele>388.0</ele>
            <time>2022-08-12T08:53:52Z</time>
         </trkpt>
         <trkpt lat="48.0220909" lon="7.194129">
            <ele>389.1</ele>
            <time>2022-08-12T08:53:59Z</time>
         </trkpt>
         <trkpt lat="48.0218468" lon="7.193778">
            <ele>389.2</ele>
            <time>2022-08-12T08:54:06Z</time>
         </trkpt>
         <trkpt lat="48.0217323" lon="7.193604">
            <ele>389.8</ele>
            <time>2022-08-12T08:54:09Z</time>
         </trkpt>
         <trkpt lat="48.0215225" lon="7.193253">
            <ele>390.8</ele>
            <time>2022-08-12T08:54:16Z</time>
         </trkpt>
         <trkpt lat="48.0212975" lon="7.1929212">
            <ele>391.9</ele>
            <time>2022-08-12T08:54:22Z</time>
         </trkpt>
         <trkpt lat="48.0210686" lon="7.192616">
            <ele>393.0</ele>
            <time>2022-08-12T08:54:28Z</time>
         </trkpt>
         <trkpt lat="48.0209885" lon="7.192524">
            <ele>393.1</ele>
            <time>2022-08-12T08:54:30Z</time>
         </trkpt>
         <trkpt lat="48.0207291" lon="7.1921611">
            <ele>393.5</ele>
            <time>2022-08-12T08:54:37Z</time>
         </trkpt>
         <trkpt lat="48.0206146" lon="7.191988">
            <ele>393.6</ele>
            <time>2022-08-12T08:54:41Z</time>
         </trkpt>
         <trkpt lat="48.0205002" lon="7.1918039">
            <ele>393.7</ele>
            <time>2022-08-12T08:54:44Z</time>
         </trkpt>
         <trkpt lat="48.0203018" lon="7.1914401">
            <ele>394.2</ele>
            <time>2022-08-12T08:54:50Z</time>
         </trkpt>
         <trkpt lat="48.0200958" lon="7.1910982">
            <ele>395.3</ele>
            <time>2022-08-12T08:54:56Z</time>
         </trkpt>
         <trkpt lat="48.0199471" lon="7.1908998">
            <ele>396.3</ele>
            <time>2022-08-12T08:55:00Z</time>
         </trkpt>
         <trkpt lat="48.0197601" lon="7.1907568">
            <ele>396.9</ele>
            <time>2022-08-12T08:55:05Z</time>
         </trkpt>
         <trkpt lat="48.0196495" lon="7.1906948">
            <ele>397.9</ele>
            <time>2022-08-12T08:55:07Z</time>
         </trkpt>
         <trkpt lat="48.0193176" lon="7.1905251">
            <ele>399.4</ele>
            <time>2022-08-12T08:55:14Z</time>
         </trkpt>
         <trkpt lat="48.0192108" lon="7.1904411">
            <ele>399.5</ele>
            <time>2022-08-12T08:55:16Z</time>
         </trkpt>
         <trkpt lat="48.0191078" lon="7.1903281">
            <ele>400.0</ele>
            <time>2022-08-12T08:55:19Z</time>
         </trkpt>
         <trkpt lat="48.0190239" lon="7.1902051">
            <ele>401.1</ele>
            <time>2022-08-12T08:55:21Z</time>
         </trkpt>
         <trkpt lat="48.0189247" lon="7.1900439">
            <ele>401.1</ele>
            <time>2022-08-12T08:55:24Z</time>
         </trkpt>
         <trkpt lat="48.0186424" lon="7.1895452">
            <ele>401.5</ele>
            <time>2022-08-12T08:55:33Z</time>
         </trkpt>
         <trkpt lat="48.0184021" lon="7.1891508">
            <ele>401.7</ele>
            <time>2022-08-12T08:55:40Z</time>
         </trkpt>
         <trkpt lat="48.0182495" lon="7.1889539">
            <ele>401.8</ele>
            <time>2022-08-12T08:55:44Z</time>
         </trkpt>
         <trkpt lat="48.0181084" lon="7.1888108">
            <ele>401.5</ele>
            <time>2022-08-12T08:55:48Z</time>
         </trkpt>
         <trkpt lat="48.017971" lon="7.188642">
            <ele>401.5</ele>
            <time>2022-08-12T08:55:51Z</time>
         </trkpt>
         <trkpt lat="48.0178452" lon="7.1884532">
            <ele>402.0</ele>
            <time>2022-08-12T08:55:55Z</time>
         </trkpt>
         <trkpt lat="48.017746" lon="7.188283">
            <ele>402.5</ele>
            <time>2022-08-12T08:55:58Z</time>
         </trkpt>
         <trkpt lat="48.0174141" lon="7.1876941">
            <ele>404.5</ele>
            <time>2022-08-12T08:56:08Z</time>
         </trkpt>
         <trkpt lat="48.0173035" lon="7.1875162">
            <ele>405.6</ele>
            <time>2022-08-12T08:56:11Z</time>
         </trkpt>
         <trkpt lat="48.0169907" lon="7.187058">
            <ele>407.6</ele>
            <time>2022-08-12T08:56:20Z</time>
         </trkpt>
         <trkpt lat="48.0168877" lon="7.1868858">
            <ele>408.2</ele>
            <time>2022-08-12T08:56:23Z</time>
         </trkpt>
         <trkpt lat="48.0167961" lon="7.186707">
            <ele>409.8</ele>
            <time>2022-08-12T08:56:26Z</time>
         </trkpt>
         <trkpt lat="48.01651" lon="7.1860452">
            <ele>413.6</ele>
            <time>2022-08-12T08:56:37Z</time>
         </trkpt>
         <trkpt lat="48.0164299" lon="7.1858821">
            <ele>415.2</ele>
            <time>2022-08-12T08:56:39Z</time>
         </trkpt>
         <trkpt lat="48.016346" lon="7.1857381">
            <ele>415.7</ele>
            <time>2022-08-12T08:56:42Z</time>
         </trkpt>
         <trkpt lat="48.0162506" lon="7.1856079">
            <ele>415.3</ele>
            <time>2022-08-12T08:56:45Z</time>
         </trkpt>
         <trkpt lat="48.0161324" lon="7.1854959">
            <ele>415.8</ele>
            <time>2022-08-12T08:56:47Z</time>
         </trkpt>
         <trkpt lat="48.0160103" lon="7.1854029">
            <ele>415.9</ele>
            <time>2022-08-12T08:56:50Z</time>
         </trkpt>
         <trkpt lat="48.0157356" lon="7.1852341">
            <ele>415.9</ele>
            <time>2022-08-12T08:56:56Z</time>
         </trkpt>
         <trkpt lat="48.0155945" lon="7.185133">
            <ele>416.0</ele>
            <time>2022-08-12T08:56:59Z</time>
         </trkpt>
         <trkpt lat="48.0154533" lon="7.1850152">
            <ele>416.0</ele>
            <time>2022-08-12T08:57:03Z</time>
         </trkpt>
         <trkpt lat="48.0150299" lon="7.1846189">
            <ele>416.6</ele>
            <time>2022-08-12T08:57:13Z</time>
         </trkpt>
         <trkpt lat="48.0148659" lon="7.1844859">
            <ele>416.8</ele>
            <time>2022-08-12T08:57:16Z</time>
         </trkpt>
         <trkpt lat="48.0147057" lon="7.1843729">
            <ele>416.8</ele>
            <time>2022-08-12T08:57:20Z</time>
         </trkpt>
         <trkpt lat="48.0139427" lon="7.1838789">
            <ele>418.3</ele>
            <time>2022-08-12T08:57:36Z</time>
         </trkpt>
         <trkpt lat="48.0137939" lon="7.1837931">
            <ele>418.5</ele>
            <time>2022-08-12T08:57:40Z</time>
         </trkpt>
         <trkpt lat="48.0136452" lon="7.1837091">
            <ele>418.6</ele>
            <time>2022-08-12T08:57:43Z</time>
         </trkpt>
         <trkpt lat="48.0131874" lon="7.1834779">
            <ele>420.1</ele>
            <time>2022-08-12T08:57:53Z</time>
         </trkpt>
         <trkpt lat="48.0130463" lon="7.183413">
            <ele>420.8</ele>
            <time>2022-08-12T08:57:55Z</time>
         </trkpt>
         <trkpt lat="48.0129051" lon="7.1833339">
            <ele>420.8</ele>
            <time>2022-08-12T08:57:59Z</time>
         </trkpt>
         <trkpt lat="48.0127716" lon="7.1832452">
            <ele>421.8</ele>
            <time>2022-08-12T08:58:01Z</time>
         </trkpt>
         <trkpt lat="48.0126572" lon="7.1831379">
            <ele>422.8</ele>
            <time>2022-08-12T08:58:04Z</time>
         </trkpt>
         <trkpt lat="48.0125618" lon="7.1830211">
            <ele>422.9</ele>
            <time>2022-08-12T08:58:07Z</time>
         </trkpt>
         <trkpt lat="48.0124741" lon="7.1828909">
            <ele>423.9</ele>
            <time>2022-08-12T08:58:09Z</time>
         </trkpt>
         <trkpt lat="48.0123901" lon="7.1827431">
            <ele>424.3</ele>
            <time>2022-08-12T08:58:12Z</time>
         </trkpt>
         <trkpt lat="48.0123177" lon="7.1826081">
            <ele>424.9</ele>
            <time>2022-08-12T08:58:14Z</time>
         </trkpt>
         <trkpt lat="48.0120964" lon="7.1819501">
            <ele>426.8</ele>
            <time>2022-08-12T08:58:24Z</time>
         </trkpt>
         <trkpt lat="48.0120316" lon="7.1817918">
            <ele>428.0</ele>
            <time>2022-08-12T08:58:26Z</time>
         </trkpt>
         <trkpt lat="48.0119629" lon="7.1816401">
            <ele>428.5</ele>
            <time>2022-08-12T08:58:29Z</time>
         </trkpt>
         <trkpt lat="48.0118713" lon="7.1814952">
            <ele>429.5</ele>
            <time>2022-08-12T08:58:31Z</time>
         </trkpt>
         <trkpt lat="48.0117683" lon="7.1813569">
            <ele>430.0</ele>
            <time>2022-08-12T08:58:34Z</time>
         </trkpt>
         <trkpt lat="48.0116539" lon="7.181242">
            <ele>431.0</ele>
            <time>2022-08-12T08:58:37Z</time>
         </trkpt>
         <trkpt lat="48.0114212" lon="7.1810851">
            <ele>432.5</ele>
            <time>2022-08-12T08:58:42Z</time>
         </trkpt>
         <trkpt lat="48.0111961" lon="7.180954">
            <ele>434.1</ele>
            <time>2022-08-12T08:58:47Z</time>
         </trkpt>
         <trkpt lat="48.0110703" lon="7.1808891">
            <ele>435.0</ele>
            <time>2022-08-12T08:58:50Z</time>
         </trkpt>
         <trkpt lat="48.0109558" lon="7.180851">
            <ele>435.6</ele>
            <time>2022-08-12T08:58:52Z</time>
         </trkpt>
         <trkpt lat="48.010704" lon="7.1808038">
            <ele>437.5</ele>
            <time>2022-08-12T08:58:57Z</time>
         </trkpt>
         <trkpt lat="48.0102119" lon="7.1806159">
            <ele>439.1</ele>
            <time>2022-08-12T08:59:07Z</time>
         </trkpt>
         <trkpt lat="48.0100784" lon="7.1805072">
            <ele>439.8</ele>
            <time>2022-08-12T08:59:10Z</time>
         </trkpt>
         <trkpt lat="48.0099716" lon="7.1803498">
            <ele>439.8</ele>
            <time>2022-08-12T08:59:13Z</time>
         </trkpt>
         <trkpt lat="48.0098915" lon="7.1801748">
            <ele>440.8</ele>
            <time>2022-08-12T08:59:16Z</time>
         </trkpt>
         <trkpt lat="48.009819" lon="7.1799932">
            <ele>441.3</ele>
            <time>2022-08-12T08:59:19Z</time>
         </trkpt>
         <trkpt lat="48.009613" lon="7.1794281">
            <ele>443.3</ele>
            <time>2022-08-12T08:59:28Z</time>
         </trkpt>
         <trkpt lat="48.0095406" lon="7.179256">
            <ele>444.4</ele>
            <time>2022-08-12T08:59:30Z</time>
         </trkpt>
         <trkpt lat="48.0094566" lon="7.1790919">
            <ele>444.9</ele>
            <time>2022-08-12T08:59:33Z</time>
         </trkpt>
         <trkpt lat="48.0092697" lon="7.1787701">
            <ele>445.9</ele>
            <time>2022-08-12T08:59:39Z</time>
         </trkpt>
         <trkpt lat="48.0091705" lon="7.1786098">
            <ele>446.5</ele>
            <time>2022-08-12T08:59:42Z</time>
         </trkpt>
         <trkpt lat="48.0086708" lon="7.1778932">
            <ele>448.9</ele>
            <time>2022-08-12T08:59:56Z</time>
         </trkpt>
         <trkpt lat="48.008564" lon="7.177721">
            <ele>449.6</ele>
            <time>2022-08-12T08:59:59Z</time>
         </trkpt>
         <trkpt lat="48.0084724" lon="7.1775322">
            <ele>449.7</ele>
            <time>2022-08-12T09:00:02Z</time>
         </trkpt>
         <trkpt lat="48.0083961" lon="7.17733">
            <ele>449.2</ele>
            <time>2022-08-12T09:00:05Z</time>
         </trkpt>
         <trkpt lat="48.0081558" lon="7.1765881">
            <ele>450.3</ele>
            <time>2022-08-12T09:00:16Z</time>
         </trkpt>
         <trkpt lat="48.0078888" lon="7.175899">
            <ele>452.4</ele>
            <time>2022-08-12T09:00:27Z</time>
         </trkpt>
         <trkpt lat="48.0078125" lon="7.1756778">
            <ele>453.0</ele>
            <time>2022-08-12T09:00:30Z</time>
         </trkpt>
         <trkpt lat="48.0077515" lon="7.1754551">
            <ele>453.6</ele>
            <time>2022-08-12T09:00:33Z</time>
         </trkpt>
         <trkpt lat="48.0076065" lon="7.175005">
            <ele>455.5</ele>
            <time>2022-08-12T09:00:40Z</time>
         </trkpt>
         <trkpt lat="48.0075302" lon="7.1748209">
            <ele>456.1</ele>
            <time>2022-08-12T09:00:43Z</time>
         </trkpt>
         <trkpt lat="48.0073013" lon="7.174366">
            <ele>458.6</ele>
            <time>2022-08-12T09:00:51Z</time>
         </trkpt>
         <trkpt lat="48.0072289" lon="7.17419">
            <ele>459.1</ele>
            <time>2022-08-12T09:00:53Z</time>
         </trkpt>
         <trkpt lat="48.0071526" lon="7.1739941">
            <ele>459.6</ele>
            <time>2022-08-12T09:00:56Z</time>
         </trkpt>
         <trkpt lat="48.0070038" lon="7.1735511">
            <ele>460.7</ele>
            <time>2022-08-12T09:01:03Z</time>
         </trkpt>
         <trkpt lat="48.0069427" lon="7.1733818">
            <ele>461.3</ele>
            <time>2022-08-12T09:01:06Z</time>
         </trkpt>
         <trkpt lat="48.0068092" lon="7.173111">
            <ele>462.2</ele>
            <time>2022-08-12T09:01:10Z</time>
         </trkpt>
         <trkpt lat="48.0066681" lon="7.1728702">
            <ele>462.8</ele>
            <time>2022-08-12T09:01:14Z</time>
         </trkpt>
         <trkpt lat="48.0065346" lon="7.172667">
            <ele>463.9</ele>
            <time>2022-08-12T09:01:18Z</time>
         </trkpt>
         <trkpt lat="48.0064354" lon="7.1725311">
            <ele>464.8</ele>
            <time>2022-08-12T09:01:21Z</time>
         </trkpt>
         <trkpt lat="48.0063362" lon="7.172401">
            <ele>465.9</ele>
            <time>2022-08-12T09:01:24Z</time>
         </trkpt>
         <trkpt lat="48.0062294" lon="7.1722779">
            <ele>466.8</ele>
            <time>2022-08-12T09:01:26Z</time>
         </trkpt>
         <trkpt lat="48.0060081" lon="7.17205">
            <ele>468.4</ele>
            <time>2022-08-12T09:01:32Z</time>
         </trkpt>
         <trkpt lat="48.0059052" lon="7.1719499">
            <ele>469.4</ele>
            <time>2022-08-12T09:01:34Z</time>
         </trkpt>
         <trkpt lat="48.005703" lon="7.1717272">
            <ele>470.9</ele>
            <time>2022-08-12T09:01:39Z</time>
         </trkpt>
         <trkpt lat="48.0054245" lon="7.171381">
            <ele>472.4</ele>
            <time>2022-08-12T09:01:46Z</time>
         </trkpt>
         <trkpt lat="48.0053291" lon="7.171247">
            <ele>473.0</ele>
            <time>2022-08-12T09:01:49Z</time>
         </trkpt>
         <trkpt lat="48.0052414" lon="7.1710901">
            <ele>473.5</ele>
            <time>2022-08-12T09:01:52Z</time>
         </trkpt>
         <trkpt lat="48.0047112" lon="7.1699209">
            <ele>477.0</ele>
            <time>2022-08-12T09:02:11Z</time>
         </trkpt>
         <trkpt lat="48.0046272" lon="7.1697531">
            <ele>477.3</ele>
            <time>2022-08-12T09:02:13Z</time>
         </trkpt>
         <trkpt lat="48.004528" lon="7.1696029">
            <ele>477.7</ele>
            <time>2022-08-12T09:02:16Z</time>
         </trkpt>
         <trkpt lat="48.004406" lon="7.1695061">
            <ele>478.2</ele>
            <time>2022-08-12T09:02:19Z</time>
         </trkpt>
         <trkpt lat="48.0041313" lon="7.1694021">
            <ele>479.3</ele>
            <time>2022-08-12T09:02:25Z</time>
         </trkpt>
         <trkpt lat="48.0040054" lon="7.169333">
            <ele>479.9</ele>
            <time>2022-08-12T09:02:27Z</time>
         </trkpt>
         <trkpt lat="48.0039024" lon="7.1692119">
            <ele>480.8</ele>
            <time>2022-08-12T09:02:30Z</time>
         </trkpt>
         <trkpt lat="48.0036545" lon="7.1687908">
            <ele>483.8</ele>
            <time>2022-08-12T09:02:38Z</time>
         </trkpt>
         <trkpt lat="48.0035591" lon="7.1686692">
            <ele>484.4</ele>
            <time>2022-08-12T09:02:40Z</time>
         </trkpt>
         <trkpt lat="48.0034866" lon="7.1685338">
            <ele>485.4</ele>
            <time>2022-08-12T09:02:42Z</time>
         </trkpt>
         <trkpt lat="48.0033531" lon="7.1682582">
            <ele>486.9</ele>
            <time>2022-08-12T09:02:47Z</time>
         </trkpt>
         <trkpt lat="48.0032997" lon="7.1681271">
            <ele>487.9</ele>
            <time>2022-08-12T09:02:49Z</time>
         </trkpt>
         <trkpt lat="48.0030861" lon="7.1676698">
            <ele>490.8</ele>
            <time>2022-08-12T09:02:57Z</time>
         </trkpt>
         <trkpt lat="48.0030212" lon="7.1675081">
            <ele>491.9</ele>
            <time>2022-08-12T09:02:59Z</time>
         </trkpt>
         <trkpt lat="48.0029678" lon="7.167356">
            <ele>492.9</ele>
            <time>2022-08-12T09:03:01Z</time>
         </trkpt>
         <trkpt lat="48.0027885" lon="7.166728">
            <ele>496.8</ele>
            <time>2022-08-12T09:03:10Z</time>
         </trkpt>
         <trkpt lat="48.002758" lon="7.1665759">
            <ele>497.9</ele>
            <time>2022-08-12T09:03:13Z</time>
         </trkpt>
         <trkpt lat="48.0026817" lon="7.1661072">
            <ele>501.2</ele>
            <time>2022-08-12T09:03:19Z</time>
         </trkpt>
         <trkpt lat="48.0025253" lon="7.1646781">
            <ele>509.5</ele>
            <time>2022-08-12T09:03:39Z</time>
         </trkpt>
         <trkpt lat="48.0025101" lon="7.164516">
            <ele>510.8</ele>
            <time>2022-08-12T09:03:41Z</time>
         </trkpt>
         <trkpt lat="48.0025063" lon="7.16436">
            <ele>511.3</ele>
            <time>2022-08-12T09:03:43Z</time>
         </trkpt>
         <trkpt lat="48.0024719" lon="7.1640048">
            <ele>512.3</ele>
            <time>2022-08-12T09:03:48Z</time>
         </trkpt>
         <trkpt lat="48.0024338" lon="7.1638432">
            <ele>512.9</ele>
            <time>2022-08-12T09:03:50Z</time>
         </trkpt>
         <trkpt lat="48.0023842" lon="7.1636958">
            <ele>513.8</ele>
            <time>2022-08-12T09:03:52Z</time>
         </trkpt>
         <trkpt lat="48.0023384" lon="7.1636181">
            <ele>514.9</ele>
            <time>2022-08-12T09:03:54Z</time>
         </trkpt>
         <trkpt lat="48.0023117" lon="7.163599">
            <ele>515.0</ele>
            <time>2022-08-12T09:03:54Z</time>
         </trkpt>
         <trkpt lat="48.0023117" lon="7.163599">
            <ele>515.0</ele>
            <time>2022-08-12T09:03:54Z</time>
         </trkpt>
         <trkpt lat="48.0023651" lon="7.1635022">
            <ele>515.6</ele>
            <time>2022-08-12T09:03:56Z</time>
         </trkpt>
         <trkpt lat="48.0024567" lon="7.1632152">
            <ele>516.7</ele>
            <time>2022-08-12T09:04:00Z</time>
         </trkpt>
         <trkpt lat="48.0025711" lon="7.1628261">
            <ele>519.3</ele>
            <time>2022-08-12T09:04:06Z</time>
         </trkpt>
         <trkpt lat="48.0026627" lon="7.1625018">
            <ele>520.8</ele>
            <time>2022-08-12T09:04:10Z</time>
         </trkpt>
         <trkpt lat="48.0027733" lon="7.1619411">
            <ele>524.1</ele>
            <time>2022-08-12T09:04:18Z</time>
         </trkpt>
         <trkpt lat="48.0028191" lon="7.1616931">
            <ele>525.0</ele>
            <time>2022-08-12T09:04:22Z</time>
         </trkpt>
         <trkpt lat="48.0028458" lon="7.1613941">
            <ele>526.1</ele>
            <time>2022-08-12T09:04:26Z</time>
         </trkpt>
         <trkpt lat="48.0028877" lon="7.1610408">
            <ele>527.8</ele>
            <time>2022-08-12T09:04:31Z</time>
         </trkpt>
         <trkpt lat="48.0029221" lon="7.1606669">
            <ele>529.9</ele>
            <time>2022-08-12T09:04:36Z</time>
         </trkpt>
         <trkpt lat="48.0029488" lon="7.1602688">
            <ele>533.1</ele>
            <time>2022-08-12T09:04:41Z</time>
         </trkpt>
         <trkpt lat="48.002964" lon="7.1599479">
            <ele>534.4</ele>
            <time>2022-08-12T09:04:45Z</time>
         </trkpt>
         <trkpt lat="48.0029755" lon="7.159658">
            <ele>535.9</ele>
            <time>2022-08-12T09:04:49Z</time>
         </trkpt>
         <trkpt lat="48.0029564" lon="7.1596084">
            <ele>536.0</ele>
            <time>2022-08-12T09:04:50Z</time>
         </trkpt>
         <trkpt lat="48.0029564" lon="7.1596084">
            <ele>536.0</ele>
            <time>2022-08-12T09:04:50Z</time>
         </trkpt>
         <trkpt lat="48.0030251" lon="7.1593618">
            <ele>538.2</ele>
            <time>2022-08-12T09:04:54Z</time>
         </trkpt>
         <trkpt lat="48.0031242" lon="7.1588268">
            <ele>541.9</ele>
            <time>2022-08-12T09:05:01Z</time>
         </trkpt>
         <trkpt lat="48.0031433" lon="7.1586132">
            <ele>545.1</ele>
            <time>2022-08-12T09:05:04Z</time>
         </trkpt>
         <trkpt lat="48.0031242" lon="7.1584659">
            <ele>547.0</ele>
            <time>2022-08-12T09:05:06Z</time>
         </trkpt>
         <trkpt lat="48.0030861" lon="7.1582179">
            <ele>548.9</ele>
            <time>2022-08-12T09:05:09Z</time>
         </trkpt>
         <trkpt lat="48.0030251" lon="7.1580482">
            <ele>551.2</ele>
            <time>2022-08-12T09:05:12Z</time>
         </trkpt>
         <trkpt lat="48.0028763" lon="7.1575398">
            <ele>557.4</ele>
            <time>2022-08-12T09:05:19Z</time>
         </trkpt>
         <trkpt lat="48.0027657" lon="7.1570592">
            <ele>563.6</ele>
            <time>2022-08-12T09:05:26Z</time>
         </trkpt>
         <trkpt lat="48.0026855" lon="7.1568289">
            <ele>566.2</ele>
            <time>2022-08-12T09:05:30Z</time>
         </trkpt>
         <trkpt lat="48.0025673" lon="7.1565928">
            <ele>567.8</ele>
            <time>2022-08-12T09:05:34Z</time>
         </trkpt>
         <trkpt lat="48.0024109" lon="7.1563721">
            <ele>569.6</ele>
            <time>2022-08-12T09:05:38Z</time>
         </trkpt>
         <trkpt lat="48.002018" lon="7.1557879">
            <ele>571.9</ele>
            <time>2022-08-12T09:05:49Z</time>
         </trkpt>
         <trkpt lat="48.0018044" lon="7.1555572">
            <ele>573.5</ele>
            <time>2022-08-12T09:05:54Z</time>
         </trkpt>
         <trkpt lat="48.0017471" lon="7.155345">
            <ele>574.8</ele>
            <time>2022-08-12T09:05:57Z</time>
         </trkpt>
         <trkpt lat="48.0017624" lon="7.1551929">
            <ele>576.3</ele>
            <time>2022-08-12T09:05:59Z</time>
         </trkpt>
         <trkpt lat="48.0018425" lon="7.1550059">
            <ele>579.0</ele>
            <time>2022-08-12T09:06:02Z</time>
         </trkpt>
         <trkpt lat="48.0019264" lon="7.1547718">
            <ele>582.1</ele>
            <time>2022-08-12T09:06:06Z</time>
         </trkpt>
         <trkpt lat="48.0020523" lon="7.1543598">
            <ele>586.7</ele>
            <time>2022-08-12T09:06:12Z</time>
         </trkpt>
         <trkpt lat="48.0022163" lon="7.153924">
            <ele>591.5</ele>
            <time>2022-08-12T09:06:19Z</time>
         </trkpt>
         <trkpt lat="48.0022888" lon="7.1536741">
            <ele>594.1</ele>
            <time>2022-08-12T09:06:22Z</time>
         </trkpt>
         <trkpt lat="48.0023689" lon="7.15346">
            <ele>596.1</ele>
            <time>2022-08-12T09:06:26Z</time>
         </trkpt>
         <trkpt lat="48.0026054" lon="7.1529851">
            <ele>600.6</ele>
            <time>2022-08-12T09:06:34Z</time>
         </trkpt>
         <trkpt lat="48.0027618" lon="7.1528168">
            <ele>603.1</ele>
            <time>2022-08-12T09:06:37Z</time>
         </trkpt>
         <trkpt lat="48.0029488" lon="7.1525822">
            <ele>605.8</ele>
            <time>2022-08-12T09:06:42Z</time>
         </trkpt>
         <trkpt lat="48.0030479" lon="7.1523819">
            <ele>607.9</ele>
            <time>2022-08-12T09:06:46Z</time>
         </trkpt>
         <trkpt lat="48.0031242" lon="7.1521168">
            <ele>609.0</ele>
            <time>2022-08-12T09:06:50Z</time>
         </trkpt>
         <trkpt lat="48.0031967" lon="7.151937">
            <ele>611.0</ele>
            <time>2022-08-12T09:06:52Z</time>
         </trkpt>
         <trkpt lat="48.0031967" lon="7.151937">
            <ele>611.0</ele>
            <time>2022-08-12T09:06:52Z</time>
         </trkpt>
         <trkpt lat="48.0033493" lon="7.1519599">
            <ele>612.6</ele>
            <time>2022-08-12T09:06:55Z</time>
         </trkpt>
         <trkpt lat="48.0034142" lon="7.1520538">
            <ele>614.2</ele>
            <time>2022-08-12T09:06:57Z</time>
         </trkpt>
         <trkpt lat="48.0034714" lon="7.152216">
            <ele>615.4</ele>
            <time>2022-08-12T09:07:00Z</time>
         </trkpt>
         <trkpt lat="48.0035172" lon="7.1524358">
            <ele>617.1</ele>
            <time>2022-08-12T09:07:03Z</time>
         </trkpt>
         <trkpt lat="48.00354" lon="7.1526499">
            <ele>618.6</ele>
            <time>2022-08-12T09:07:06Z</time>
         </trkpt>
         <trkpt lat="48.00354" lon="7.152822">
            <ele>620.1</ele>
            <time>2022-08-12T09:07:08Z</time>
         </trkpt>
         <trkpt lat="48.003521" lon="7.1531358">
            <ele>623.0</ele>
            <time>2022-08-12T09:07:12Z</time>
         </trkpt>
         <trkpt lat="48.0034752" lon="7.1533909">
            <ele>625.2</ele>
            <time>2022-08-12T09:07:16Z</time>
         </trkpt>
         <trkpt lat="48.0034485" lon="7.153863">
            <ele>627.9</ele>
            <time>2022-08-12T09:07:22Z</time>
         </trkpt>
         <trkpt lat="48.0035019" lon="7.1542931">
            <ele>631.4</ele>
            <time>2022-08-12T09:07:28Z</time>
         </trkpt>
         <trkpt lat="48.0035553" lon="7.1545529">
            <ele>633.5</ele>
            <time>2022-08-12T09:07:32Z</time>
         </trkpt>
         <trkpt lat="48.0036545" lon="7.1547089">
            <ele>635.8</ele>
            <time>2022-08-12T09:07:35Z</time>
         </trkpt>
         <trkpt lat="48.0037422" lon="7.1547661">
            <ele>637.5</ele>
            <time>2022-08-12T09:07:36Z</time>
         </trkpt>
         <trkpt lat="48.0039062" lon="7.1548209">
            <ele>639.7</ele>
            <time>2022-08-12T09:07:40Z</time>
         </trkpt>
         <trkpt lat="48.0040741" lon="7.1548238">
            <ele>641.5</ele>
            <time>2022-08-12T09:07:43Z</time>
         </trkpt>
         <trkpt lat="48.0041924" lon="7.154871">
            <ele>642.3</ele>
            <time>2022-08-12T09:07:46Z</time>
         </trkpt>
         <trkpt lat="48.0044823" lon="7.1550398">
            <ele>644.4</ele>
            <time>2022-08-12T09:07:52Z</time>
         </trkpt>
         <trkpt lat="48.0045738" lon="7.1551251">
            <ele>645.2</ele>
            <time>2022-08-12T09:07:54Z</time>
         </trkpt>
         <trkpt lat="48.0047073" lon="7.1551762">
            <ele>645.9</ele>
            <time>2022-08-12T09:07:57Z</time>
         </trkpt>
         <trkpt lat="48.0048561" lon="7.1551719">
            <ele>646.6</ele>
            <time>2022-08-12T09:08:00Z</time>
         </trkpt>
         <trkpt lat="48.0049515" lon="7.1551862">
            <ele>647.4</ele>
            <time>2022-08-12T09:08:02Z</time>
         </trkpt>
         <trkpt lat="48.0050697" lon="7.1552262">
            <ele>648.7</ele>
            <time>2022-08-12T09:08:04Z</time>
         </trkpt>
         <trkpt lat="48.0052185" lon="7.1552358">
            <ele>650.1</ele>
            <time>2022-08-12T09:08:07Z</time>
         </trkpt>
         <trkpt lat="48.0053825" lon="7.155221">
            <ele>651.4</ele>
            <time>2022-08-12T09:08:10Z</time>
         </trkpt>
         <trkpt lat="48.0055542" lon="7.1552792">
            <ele>652.5</ele>
            <time>2022-08-12T09:08:14Z</time>
         </trkpt>
         <trkpt lat="48.0056686" lon="7.1554828">
            <ele>654.0</ele>
            <time>2022-08-12T09:08:18Z</time>
         </trkpt>
         <trkpt lat="48.0056534" lon="7.1556482">
            <ele>655.0</ele>
            <time>2022-08-12T09:08:20Z</time>
         </trkpt>
         <trkpt lat="48.0055313" lon="7.1561279">
            <ele>656.9</ele>
            <time>2022-08-12T09:08:27Z</time>
         </trkpt>
         <trkpt lat="48.0054893" lon="7.156383">
            <ele>657.7</ele>
            <time>2022-08-12T09:08:30Z</time>
         </trkpt>
         <trkpt lat="48.0054588" lon="7.1566768">
            <ele>658.4</ele>
            <time>2022-08-12T09:08:34Z</time>
         </trkpt>
         <trkpt lat="48.0055046" lon="7.156816">
            <ele>658.5</ele>
            <time>2022-08-12T09:08:36Z</time>
         </trkpt>
         <trkpt lat="48.0055275" lon="7.156826">
            <ele>658.5</ele>
            <time>2022-08-12T09:08:37Z</time>
         </trkpt>
         <trkpt lat="48.0056038" lon="7.1567192">
            <ele>659.4</ele>
            <time>2022-08-12T09:08:39Z</time>
         </trkpt>
         <trkpt lat="48.0056114" lon="7.1563158">
            <ele>661.7</ele>
            <time>2022-08-12T09:08:44Z</time>
         </trkpt>
         <trkpt lat="48.0056763" lon="7.1561399">
            <ele>662.6</ele>
            <time>2022-08-12T09:08:47Z</time>
         </trkpt>
         <trkpt lat="48.0057449" lon="7.1560311">
            <ele>663.4</ele>
            <time>2022-08-12T09:08:49Z</time>
         </trkpt>
         <trkpt lat="48.0058441" lon="7.1558409">
            <ele>665.2</ele>
            <time>2022-08-12T09:08:52Z</time>
         </trkpt>
         <trkpt lat="48.0059509" lon="7.1556048">
            <ele>667.6</ele>
            <time>2022-08-12T09:08:56Z</time>
         </trkpt>
         <trkpt lat="48.0060272" lon="7.155479">
            <ele>669.0</ele>
            <time>2022-08-12T09:08:58Z</time>
         </trkpt>
         <trkpt lat="48.0060997" lon="7.1553068">
            <ele>671.1</ele>
            <time>2022-08-12T09:09:01Z</time>
         </trkpt>
         <trkpt lat="48.0061798" lon="7.1550379">
            <ele>674.1</ele>
            <time>2022-08-12T09:09:05Z</time>
         </trkpt>
         <trkpt lat="48.0060883" lon="7.1548419">
            <ele>676.3</ele>
            <time>2022-08-12T09:09:08Z</time>
         </trkpt>
         <trkpt lat="48.00597" lon="7.1546898">
            <ele>678.1</ele>
            <time>2022-08-12T09:09:11Z</time>
         </trkpt>
         <trkpt lat="48.0056763" lon="7.1543789">
            <ele>684.2</ele>
            <time>2022-08-12T09:09:18Z</time>
         </trkpt>
         <trkpt lat="48.0055695" lon="7.1543279">
            <ele>685.8</ele>
            <time>2022-08-12T09:09:21Z</time>
         </trkpt>
         <trkpt lat="48.0054893" lon="7.154273">
            <ele>687.1</ele>
            <time>2022-08-12T09:09:22Z</time>
         </trkpt>
         <trkpt lat="48.0053749" lon="7.154243">
            <ele>688.8</ele>
            <time>2022-08-12T09:09:25Z</time>
         </trkpt>
         <trkpt lat="48.0052528" lon="7.1542301">
            <ele>690.1</ele>
            <time>2022-08-12T09:09:27Z</time>
         </trkpt>
         <trkpt lat="48.0051575" lon="7.1541972">
            <ele>691.7</ele>
            <time>2022-08-12T09:09:29Z</time>
         </trkpt>
         <trkpt lat="48.0050697" lon="7.1541228">
            <ele>693.4</ele>
            <time>2022-08-12T09:09:31Z</time>
         </trkpt>
         <trkpt lat="48.0049744" lon="7.154017">
            <ele>694.7</ele>
            <time>2022-08-12T09:09:34Z</time>
         </trkpt>
         <trkpt lat="48.0048218" lon="7.153718">
            <ele>698.2</ele>
            <time>2022-08-12T09:09:39Z</time>
         </trkpt>
         <trkpt lat="48.0047989" lon="7.153523">
            <ele>699.8</ele>
            <time>2022-08-12T09:09:41Z</time>
         </trkpt>
         <trkpt lat="48.0048752" lon="7.1531839">
            <ele>703.2</ele>
            <time>2022-08-12T09:09:46Z</time>
         </trkpt>
         <trkpt lat="48.0049324" lon="7.1530118">
            <ele>704.8</ele>
            <time>2022-08-12T09:09:49Z</time>
         </trkpt>
         <trkpt lat="48.0051651" lon="7.1525121">
            <ele>710.2</ele>
            <time>2022-08-12T09:09:57Z</time>
         </trkpt>
         <trkpt lat="48.0052376" lon="7.1523209">
            <ele>711.8</ele>
            <time>2022-08-12T09:10:00Z</time>
         </trkpt>
         <trkpt lat="48.0054855" lon="7.1517568">
            <ele>717.1</ele>
            <time>2022-08-12T09:10:09Z</time>
         </trkpt>
         <trkpt lat="48.0055962" lon="7.1514201">
            <ele>719.8</ele>
            <time>2022-08-12T09:10:14Z</time>
         </trkpt>
         <trkpt lat="48.0056419" lon="7.151247">
            <ele>721.7</ele>
            <time>2022-08-12T09:10:16Z</time>
         </trkpt>
         <trkpt lat="48.0056953" lon="7.150897">
            <ele>724.2</ele>
            <time>2022-08-12T09:10:21Z</time>
         </trkpt>
         <trkpt lat="48.0057406" lon="7.1507354">
            <ele>725.0</ele>
            <time>2022-08-12T09:10:24Z</time>
         </trkpt>
         <trkpt lat="48.0057406" lon="7.1507354">
            <ele>725.0</ele>
            <time>2022-08-12T09:10:24Z</time>
         </trkpt>
         <trkpt lat="48.0059624" lon="7.1499429">
            <ele>730.1</ele>
            <time>2022-08-12T09:10:35Z</time>
         </trkpt>
         <trkpt lat="48.0061035" lon="7.1495199">
            <ele>733.6</ele>
            <time>2022-08-12T09:10:41Z</time>
         </trkpt>
         <trkpt lat="48.0061569" lon="7.1493192">
            <ele>734.7</ele>
            <time>2022-08-12T09:10:44Z</time>
         </trkpt>
         <trkpt lat="48.0061612" lon="7.1492898">
            <ele>735.0</ele>
            <time>2022-08-12T09:10:45Z</time>
         </trkpt>
         <trkpt lat="48.0061612" lon="7.1492898">
            <ele>735.0</ele>
            <time>2022-08-12T09:10:45Z</time>
         </trkpt>
         <trkpt lat="48.0061798" lon="7.1491618">
            <ele>736.3</ele>
            <time>2022-08-12T09:10:46Z</time>
         </trkpt>
         <trkpt lat="48.0061569" lon="7.149055">
            <ele>737.1</ele>
            <time>2022-08-12T09:10:48Z</time>
         </trkpt>
         <trkpt lat="48.0060959" lon="7.1488862">
            <ele>738.9</ele>
            <time>2022-08-12T09:10:50Z</time>
         </trkpt>
         <trkpt lat="48.0059204" lon="7.148694">
            <ele>741.5</ele>
            <time>2022-08-12T09:10:55Z</time>
         </trkpt>
         <trkpt lat="48.0056877" lon="7.1485281">
            <ele>744.9</ele>
            <time>2022-08-12T09:11:00Z</time>
         </trkpt>
         <trkpt lat="48.0055695" lon="7.1484232">
            <ele>746.7</ele>
            <time>2022-08-12T09:11:03Z</time>
         </trkpt>
         <trkpt lat="48.005352" lon="7.1481018">
            <ele>749.2</ele>
            <time>2022-08-12T09:11:09Z</time>
         </trkpt>
         <trkpt lat="48.0052643" lon="7.1479468">
            <ele>750.3</ele>
            <time>2022-08-12T09:11:12Z</time>
         </trkpt>
         <trkpt lat="48.0051346" lon="7.1477952">
            <ele>752.1</ele>
            <time>2022-08-12T09:11:15Z</time>
         </trkpt>
         <trkpt lat="48.0050049" lon="7.1476879">
            <ele>754.1</ele>
            <time>2022-08-12T09:11:18Z</time>
         </trkpt>
         <trkpt lat="48.0048752" lon="7.1475558">
            <ele>756.2</ele>
            <time>2022-08-12T09:11:21Z</time>
         </trkpt>
         <trkpt lat="48.004631" lon="7.146996">
            <ele>760.3</ele>
            <time>2022-08-12T09:11:30Z</time>
         </trkpt>
         <trkpt lat="48.0044365" lon="7.1464419">
            <ele>764.4</ele>
            <time>2022-08-12T09:11:38Z</time>
         </trkpt>
         <trkpt lat="48.0044174" lon="7.1459661">
            <ele>768.2</ele>
            <time>2022-08-12T09:11:45Z</time>
         </trkpt>
         <trkpt lat="48.0043755" lon="7.1453309">
            <ele>773.0</ele>
            <time>2022-08-12T09:11:53Z</time>
         </trkpt>
         <trkpt lat="48.004425" lon="7.1440082">
            <ele>781.5</ele>
            <time>2022-08-12T09:12:11Z</time>
         </trkpt>
         <trkpt lat="48.0043907" lon="7.1437888">
            <ele>781.7</ele>
            <time>2022-08-12T09:12:14Z</time>
         </trkpt>
         <trkpt lat="48.0042496" lon="7.1433501">
            <ele>785.6</ele>
            <time>2022-08-12T09:12:21Z</time>
         </trkpt>
         <trkpt lat="48.0042191" lon="7.143126">
            <ele>786.8</ele>
            <time>2022-08-12T09:12:24Z</time>
         </trkpt>
         <trkpt lat="48.0041695" lon="7.1429191">
            <ele>788.0</ele>
            <time>2022-08-12T09:12:27Z</time>
         </trkpt>
         <trkpt lat="48.0040665" lon="7.1427321">
            <ele>789.2</ele>
            <time>2022-08-12T09:12:30Z</time>
         </trkpt>
         <trkpt lat="48.0039215" lon="7.142695">
            <ele>790.4</ele>
            <time>2022-08-12T09:12:33Z</time>
         </trkpt>
         <trkpt lat="48.0037956" lon="7.142684">
            <ele>791.7</ele>
            <time>2022-08-12T09:12:35Z</time>
         </trkpt>
         <trkpt lat="48.0036125" lon="7.1427069">
            <ele>792.2</ele>
            <time>2022-08-12T09:12:39Z</time>
         </trkpt>
         <trkpt lat="48.0034256" lon="7.1426573">
            <ele>794.0</ele>
            <time>2022-08-12T09:12:43Z</time>
         </trkpt>
         <trkpt lat="48.0034256" lon="7.1426573">
            <ele>794.0</ele>
            <time>2022-08-12T09:12:43Z</time>
         </trkpt>
         <trkpt lat="48.0034256" lon="7.1426573">
            <ele>794.0</ele>
            <time>2022-08-12T09:12:43Z</time>
         </trkpt>
         <trkpt lat="48.0034256" lon="7.1426573">
            <ele>794.0</ele>
            <time>2022-08-12T09:12:43Z</time>
         </trkpt>
         <trkpt lat="48.0033302" lon="7.1425571">
            <ele>795.1</ele>
            <time>2022-08-12T09:12:45Z</time>
         </trkpt>
         <trkpt lat="48.0032005" lon="7.1424851">
            <ele>795.9</ele>
            <time>2022-08-12T09:12:48Z</time>
         </trkpt>
         <trkpt lat="48.0029945" lon="7.1424379">
            <ele>796.9</ele>
            <time>2022-08-12T09:12:52Z</time>
         </trkpt>
         <trkpt lat="48.002758" lon="7.1425848">
            <ele>798.4</ele>
            <time>2022-08-12T09:12:57Z</time>
         </trkpt>
         <trkpt lat="48.002594" lon="7.1426678">
            <ele>799.8</ele>
            <time>2022-08-12T09:13:01Z</time>
         </trkpt>
         <trkpt lat="48.0024223" lon="7.1427112">
            <ele>800.7</ele>
            <time>2022-08-12T09:13:04Z</time>
         </trkpt>
         <trkpt lat="48.0022621" lon="7.1427112">
            <ele>802.0</ele>
            <time>2022-08-12T09:13:07Z</time>
         </trkpt>
         <trkpt lat="48.0020905" lon="7.1426549">
            <ele>803.1</ele>
            <time>2022-08-12T09:13:11Z</time>
         </trkpt>
         <trkpt lat="48.0019302" lon="7.1425562">
            <ele>803.9</ele>
            <time>2022-08-12T09:13:14Z</time>
         </trkpt>
         <trkpt lat="48.0016747" lon="7.1424408">
            <ele>805.6</ele>
            <time>2022-08-12T09:13:20Z</time>
         </trkpt>
         <trkpt lat="48.0015793" lon="7.142364">
            <ele>806.0</ele>
            <time>2022-08-12T09:13:22Z</time>
         </trkpt>
         <trkpt lat="48.0014534" lon="7.1421952">
            <ele>807.2</ele>
            <time>2022-08-12T09:13:25Z</time>
         </trkpt>
         <trkpt lat="48.0012741" lon="7.1420479">
            <ele>808.5</ele>
            <time>2022-08-12T09:13:29Z</time>
         </trkpt>
         <trkpt lat="48.0009232" lon="7.141818">
            <ele>810.9</ele>
            <time>2022-08-12T09:13:37Z</time>
         </trkpt>
         <trkpt lat="48.000721" lon="7.1416469">
            <ele>812.6</ele>
            <time>2022-08-12T09:13:42Z</time>
         </trkpt>
         <trkpt lat="48.0005836" lon="7.14149">
            <ele>813.7</ele>
            <time>2022-08-12T09:13:45Z</time>
         </trkpt>
         <trkpt lat="48.0003777" lon="7.1413078">
            <ele>815.4</ele>
            <time>2022-08-12T09:13:50Z</time>
         </trkpt>
         <trkpt lat="48.0000038" lon="7.1410408">
            <ele>817.8</ele>
            <time>2022-08-12T09:13:58Z</time>
         </trkpt>
         <trkpt lat="47.9994125" lon="7.1404428">
            <ele>821.5</ele>
            <time>2022-08-12T09:14:13Z</time>
         </trkpt>
         <trkpt lat="47.9992447" lon="7.140265">
            <ele>823.4</ele>
            <time>2022-08-12T09:14:17Z</time>
         </trkpt>
         <trkpt lat="47.9990997" lon="7.1401172">
            <ele>824.4</ele>
            <time>2022-08-12T09:14:20Z</time>
         </trkpt>
         <trkpt lat="47.998951" lon="7.139986">
            <ele>825.3</ele>
            <time>2022-08-12T09:14:24Z</time>
         </trkpt>
         <trkpt lat="47.9987946" lon="7.1398649">
            <ele>826.7</ele>
            <time>2022-08-12T09:14:27Z</time>
         </trkpt>
         <trkpt lat="47.9986038" lon="7.1397519">
            <ele>828.0</ele>
            <time>2022-08-12T09:14:31Z</time>
         </trkpt>
         <trkpt lat="47.998455" lon="7.139617">
            <ele>829.1</ele>
            <time>2022-08-12T09:14:35Z</time>
         </trkpt>
         <trkpt lat="47.9985008" lon="7.139492">
            <ele>830.1</ele>
            <time>2022-08-12T09:14:37Z</time>
         </trkpt>
         <trkpt lat="47.9987106" lon="7.1395941">
            <ele>832.5</ele>
            <time>2022-08-12T09:14:41Z</time>
         </trkpt>
         <trkpt lat="47.998806" lon="7.1396508">
            <ele>834.0</ele>
            <time>2022-08-12T09:14:43Z</time>
         </trkpt>
         <trkpt lat="47.9991646" lon="7.1398072">
            <ele>838.6</ele>
            <time>2022-08-12T09:14:51Z</time>
         </trkpt>
         <trkpt lat="47.9993095" lon="7.1398611">
            <ele>840.8</ele>
            <time>2022-08-12T09:14:54Z</time>
         </trkpt>
         <trkpt lat="47.9997787" lon="7.1399269">
            <ele>845.5</ele>
            <time>2022-08-12T09:15:03Z</time>
         </trkpt>
         <trkpt lat="47.9998741" lon="7.1399512">
            <ele>847.3</ele>
            <time>2022-08-12T09:15:05Z</time>
         </trkpt>
         <trkpt lat="47.9999924" lon="7.1399899">
            <ele>848.1</ele>
            <time>2022-08-12T09:15:08Z</time>
         </trkpt>
         <trkpt lat="48.0002022" lon="7.1400232">
            <ele>850.8</ele>
            <time>2022-08-12T09:15:12Z</time>
         </trkpt>
         <trkpt lat="48.0004616" lon="7.1400962">
            <ele>854.0</ele>
            <time>2022-08-12T09:15:17Z</time>
         </trkpt>
         <trkpt lat="48.0006065" lon="7.1401138">
            <ele>855.9</ele>
            <time>2022-08-12T09:15:20Z</time>
         </trkpt>
         <trkpt lat="48.0007286" lon="7.1401181">
            <ele>857.4</ele>
            <time>2022-08-12T09:15:22Z</time>
         </trkpt>
         <trkpt lat="48.0008774" lon="7.1401391">
            <ele>858.0</ele>
            <time>2022-08-12T09:15:25Z</time>
         </trkpt>
         <trkpt lat="48.0011559" lon="7.1402059">
            <ele>861.3</ele>
            <time>2022-08-12T09:15:31Z</time>
         </trkpt>
         <trkpt lat="48.0014725" lon="7.1403732">
            <ele>866.6</ele>
            <time>2022-08-12T09:15:38Z</time>
         </trkpt>
         <trkpt lat="48.0015984" lon="7.14047">
            <ele>868.6</ele>
            <time>2022-08-12T09:15:41Z</time>
         </trkpt>
         <trkpt lat="48.0017433" lon="7.140564">
            <ele>870.4</ele>
            <time>2022-08-12T09:15:44Z</time>
         </trkpt>
         <trkpt lat="48.0018959" lon="7.1406131">
            <ele>871.8</ele>
            <time>2022-08-12T09:15:47Z</time>
         </trkpt>
         <trkpt lat="48.0020485" lon="7.1406412">
            <ele>873.9</ele>
            <time>2022-08-12T09:15:50Z</time>
         </trkpt>
         <trkpt lat="48.0022163" lon="7.1405959">
            <ele>875.7</ele>
            <time>2022-08-12T09:15:53Z</time>
         </trkpt>
         <trkpt lat="48.0023079" lon="7.1405792">
            <ele>877.1</ele>
            <time>2022-08-12T09:15:55Z</time>
         </trkpt>
         <trkpt lat="48.0024261" lon="7.1405349">
            <ele>878.7</ele>
            <time>2022-08-12T09:15:58Z</time>
         </trkpt>
         <trkpt lat="48.0026207" lon="7.140378">
            <ele>881.4</ele>
            <time>2022-08-12T09:16:02Z</time>
         </trkpt>
         <trkpt lat="48.0027771" lon="7.1402941">
            <ele>883.7</ele>
            <time>2022-08-12T09:16:05Z</time>
         </trkpt>
         <trkpt lat="48.0031433" lon="7.1401172">
            <ele>888.3</ele>
            <time>2022-08-12T09:16:13Z</time>
         </trkpt>
         <trkpt lat="48.003418" lon="7.1400142">
            <ele>891.7</ele>
            <time>2022-08-12T09:16:19Z</time>
         </trkpt>
         <trkpt lat="48.0035286" lon="7.1399841">
            <ele>893.1</ele>
            <time>2022-08-12T09:16:21Z</time>
         </trkpt>
         <trkpt lat="48.0038605" lon="7.139833">
            <ele>897.4</ele>
            <time>2022-08-12T09:16:28Z</time>
         </trkpt>
         <trkpt lat="48.0039749" lon="7.1397519">
            <ele>898.9</ele>
            <time>2022-08-12T09:16:31Z</time>
         </trkpt>
         <trkpt lat="48.0040894" lon="7.1396818">
            <ele>900.4</ele>
            <time>2022-08-12T09:16:33Z</time>
         </trkpt>
         <trkpt lat="48.0042458" lon="7.1395602">
            <ele>902.6</ele>
            <time>2022-08-12T09:16:37Z</time>
         </trkpt>
         <trkpt lat="48.0043602" lon="7.139389">
            <ele>904.7</ele>
            <time>2022-08-12T09:16:40Z</time>
         </trkpt>
         <trkpt lat="48.0044289" lon="7.1391649">
            <ele>906.9</ele>
            <time>2022-08-12T09:16:43Z</time>
         </trkpt>
         <trkpt lat="48.0046005" lon="7.1386762">
            <ele>910.2</ele>
            <time>2022-08-12T09:16:51Z</time>
         </trkpt>
         <trkpt lat="48.0048065" lon="7.1383328">
            <ele>911.0</ele>
            <time>2022-08-12T09:16:57Z</time>
         </trkpt>
         <trkpt lat="48.0049286" lon="7.1380949">
            <ele>912.1</ele>
            <time>2022-08-12T09:17:01Z</time>
         </trkpt>
         <trkpt lat="48.0049477" lon="7.1379666">
            <ele>913.0</ele>
            <time>2022-08-12T09:17:03Z</time>
         </trkpt>
         <trkpt lat="48.0049477" lon="7.1379666">
            <ele>913.0</ele>
            <time>2022-08-12T09:17:03Z</time>
         </trkpt>
         <trkpt lat="48.0049362" lon="7.1378632">
            <ele>912.5</ele>
            <time>2022-08-12T09:17:04Z</time>
         </trkpt>
         <trkpt lat="48.0048981" lon="7.1376009">
            <ele>913.2</ele>
            <time>2022-08-12T09:17:08Z</time>
         </trkpt>
         <trkpt lat="48.0048599" lon="7.1373281">
            <ele>912.3</ele>
            <time>2022-08-12T09:17:11Z</time>
         </trkpt>
         <trkpt lat="48.0048141" lon="7.1369181">
            <ele>910.4</ele>
            <time>2022-08-12T09:17:17Z</time>
         </trkpt>
         <trkpt lat="48.0047951" lon="7.1368332">
            <ele>909.4</ele>
            <time>2022-08-12T09:17:18Z</time>
         </trkpt>
         <trkpt lat="48.0047379" lon="7.1363268">
            <ele>907.9</ele>
            <time>2022-08-12T09:17:25Z</time>
         </trkpt>
         <trkpt lat="48.0047188" lon="7.1362228">
            <ele>906.5</ele>
            <time>2022-08-12T09:17:26Z</time>
         </trkpt>
         <trkpt lat="48.0046234" lon="7.1355791">
            <ele>903.5</ele>
            <time>2022-08-12T09:17:35Z</time>
         </trkpt>
         <trkpt lat="48.0046043" lon="7.1354709">
            <ele>901.9</ele>
            <time>2022-08-12T09:17:37Z</time>
         </trkpt>
         <trkpt lat="48.0045204" lon="7.1351199">
            <ele>900.3</ele>
            <time>2022-08-12T09:17:42Z</time>
         </trkpt>
         <trkpt lat="48.0044479" lon="7.1348991">
            <ele>898.4</ele>
            <time>2022-08-12T09:17:45Z</time>
         </trkpt>
         <trkpt lat="48.0042534" lon="7.1346512">
            <ele>897.0</ele>
            <time>2022-08-12T09:17:50Z</time>
         </trkpt>
         <trkpt lat="48.0041351" lon="7.1344824">
            <ele>895.0</ele>
            <time>2022-08-12T09:17:53Z</time>
         </trkpt>
         <trkpt lat="48.0041351" lon="7.1344824">
            <ele>895.0</ele>
            <time>2022-08-12T09:17:53Z</time>
         </trkpt>
         <trkpt lat="48.0039062" lon="7.134397">
            <ele>895.5</ele>
            <time>2022-08-12T09:17:58Z</time>
         </trkpt>
         <trkpt lat="48.0037003" lon="7.134192">
            <ele>896.0</ele>
            <time>2022-08-12T09:18:03Z</time>
         </trkpt>
         <trkpt lat="48.0037003" lon="7.134192">
            <ele>896.0</ele>
            <time>2022-08-12T09:18:03Z</time>
         </trkpt>
         <trkpt lat="48.0036469" lon="7.1341538">
            <ele>896.5</ele>
            <time>2022-08-12T09:18:04Z</time>
         </trkpt>
         <trkpt lat="48.0031319" lon="7.1337638">
            <ele>899.0</ele>
            <time>2022-08-12T09:18:16Z</time>
         </trkpt>
         <trkpt lat="48.0028229" lon="7.1334772">
            <ele>900.4</ele>
            <time>2022-08-12T09:18:23Z</time>
         </trkpt>
         <trkpt lat="48.0026321" lon="7.1333179">
            <ele>901.6</ele>
            <time>2022-08-12T09:18:28Z</time>
         </trkpt>
         <trkpt lat="48.0024147" lon="7.1331739">
            <ele>903.1</ele>
            <time>2022-08-12T09:18:32Z</time>
         </trkpt>
         <trkpt lat="48.0022354" lon="7.1330609">
            <ele>904.4</ele>
            <time>2022-08-12T09:18:36Z</time>
         </trkpt>
         <trkpt lat="48.0020409" lon="7.132937">
            <ele>906.3</ele>
            <time>2022-08-12T09:18:40Z</time>
         </trkpt>
         <trkpt lat="48.0018272" lon="7.1328011">
            <ele>907.6</ele>
            <time>2022-08-12T09:18:45Z</time>
         </trkpt>
         <trkpt lat="48.0017357" lon="7.1327438">
            <ele>908.1</ele>
            <time>2022-08-12T09:18:47Z</time>
         </trkpt>
         <trkpt lat="48.0015869" lon="7.1326132">
            <ele>909.5</ele>
            <time>2022-08-12T09:18:51Z</time>
         </trkpt>
         <trkpt lat="48.0012627" lon="7.1322708">
            <ele>912.5</ele>
            <time>2022-08-12T09:18:58Z</time>
         </trkpt>
         <trkpt lat="48.001152" lon="7.1321559">
            <ele>913.8</ele>
            <time>2022-08-12T09:19:01Z</time>
         </trkpt>
         <trkpt lat="48.0009956" lon="7.1319928">
            <ele>914.9</ele>
            <time>2022-08-12T09:19:05Z</time>
         </trkpt>
         <trkpt lat="48.0008507" lon="7.1318402">
            <ele>916.3</ele>
            <time>2022-08-12T09:19:09Z</time>
         </trkpt>
         <trkpt lat="48.0007324" lon="7.1317148">
            <ele>917.2</ele>
            <time>2022-08-12T09:19:11Z</time>
         </trkpt>
         <trkpt lat="48.0004005" lon="7.1313639">
            <ele>920.9</ele>
            <time>2022-08-12T09:19:20Z</time>
         </trkpt>
         <trkpt lat="48.0001221" lon="7.1310749">
            <ele>923.3</ele>
            <time>2022-08-12T09:19:26Z</time>
         </trkpt>
         <trkpt lat="47.9999809" lon="7.130928">
            <ele>925.0</ele>
            <time>2022-08-12T09:19:30Z</time>
         </trkpt>
         <trkpt lat="47.9998055" lon="7.130784">
            <ele>927.1</ele>
            <time>2022-08-12T09:19:34Z</time>
         </trkpt>
         <trkpt lat="47.9996223" lon="7.1306581">
            <ele>928.3</ele>
            <time>2022-08-12T09:19:38Z</time>
         </trkpt>
         <trkpt lat="47.9993286" lon="7.1304808">
            <ele>930.9</ele>
            <time>2022-08-12T09:19:44Z</time>
         </trkpt>
         <trkpt lat="47.9991951" lon="7.1304011">
            <ele>932.2</ele>
            <time>2022-08-12T09:19:47Z</time>
         </trkpt>
         <trkpt lat="47.9990425" lon="7.130291">
            <ele>933.3</ele>
            <time>2022-08-12T09:19:51Z</time>
         </trkpt>
         <trkpt lat="47.9988022" lon="7.1300659">
            <ele>935.4</ele>
            <time>2022-08-12T09:19:56Z</time>
         </trkpt>
         <trkpt lat="47.9985313" lon="7.129806">
            <ele>937.9</ele>
            <time>2022-08-12T09:20:03Z</time>
         </trkpt>
         <trkpt lat="47.9983597" lon="7.1296449">
            <ele>940.1</ele>
            <time>2022-08-12T09:20:07Z</time>
         </trkpt>
         <trkpt lat="47.9981995" lon="7.1295838">
            <ele>941.9</ele>
            <time>2022-08-12T09:20:10Z</time>
         </trkpt>
         <trkpt lat="47.9980621" lon="7.1295528">
            <ele>943.4</ele>
            <time>2022-08-12T09:20:13Z</time>
         </trkpt>
         <trkpt lat="47.9979286" lon="7.1295218">
            <ele>945.1</ele>
            <time>2022-08-12T09:20:16Z</time>
         </trkpt>
         <trkpt lat="47.9977798" lon="7.1294889">
            <ele>946.4</ele>
            <time>2022-08-12T09:20:19Z</time>
         </trkpt>
         <trkpt lat="47.9976616" lon="7.1294608">
            <ele>947.8</ele>
            <time>2022-08-12T09:20:21Z</time>
         </trkpt>
         <trkpt lat="47.9975548" lon="7.129437">
            <ele>948.8</ele>
            <time>2022-08-12T09:20:23Z</time>
         </trkpt>
         <trkpt lat="47.9974365" lon="7.1294098">
            <ele>950.1</ele>
            <time>2022-08-12T09:20:25Z</time>
         </trkpt>
         <trkpt lat="47.9973602" lon="7.1294069">
            <ele>951.7</ele>
            <time>2022-08-12T09:20:27Z</time>
         </trkpt>
         <trkpt lat="47.9971352" lon="7.1295209">
            <ele>954.2</ele>
            <time>2022-08-12T09:20:32Z</time>
         </trkpt>
         <trkpt lat="47.9969254" lon="7.1296248">
            <ele>957.1</ele>
            <time>2022-08-12T09:20:36Z</time>
         </trkpt>
         <trkpt lat="47.9968033" lon="7.1296859">
            <ele>958.6</ele>
            <time>2022-08-12T09:20:39Z</time>
         </trkpt>
         <trkpt lat="47.996685" lon="7.129745">
            <ele>959.7</ele>
            <time>2022-08-12T09:20:41Z</time>
         </trkpt>
         <trkpt lat="47.9965973" lon="7.1297841">
            <ele>960.7</ele>
            <time>2022-08-12T09:20:43Z</time>
         </trkpt>
         <trkpt lat="47.9964561" lon="7.1297841">
            <ele>961.7</ele>
            <time>2022-08-12T09:20:46Z</time>
         </trkpt>
         <trkpt lat="47.9962807" lon="7.129775">
            <ele>964.0</ele>
            <time>2022-08-12T09:20:49Z</time>
         </trkpt>
         <trkpt lat="47.9959335" lon="7.1297302">
            <ele>966.7</ele>
            <time>2022-08-12T09:20:56Z</time>
         </trkpt>
         <trkpt lat="47.9957619" lon="7.1297078">
            <ele>969.1</ele>
            <time>2022-08-12T09:21:00Z</time>
         </trkpt>
         <trkpt lat="47.9956627" lon="7.1296949">
            <ele>970.3</ele>
            <time>2022-08-12T09:21:02Z</time>
         </trkpt>
         <trkpt lat="47.9955101" lon="7.1296749">
            <ele>971.7</ele>
            <time>2022-08-12T09:21:05Z</time>
         </trkpt>
         <trkpt lat="47.9953766" lon="7.1296582">
            <ele>973.4</ele>
            <time>2022-08-12T09:21:08Z</time>
         </trkpt>
         <trkpt lat="47.9952393" lon="7.1296411">
            <ele>974.8</ele>
            <time>2022-08-12T09:21:10Z</time>
         </trkpt>
         <trkpt lat="47.995121" lon="7.1296248">
            <ele>976.1</ele>
            <time>2022-08-12T09:21:13Z</time>
         </trkpt>
         <trkpt lat="47.9949684" lon="7.1295948">
            <ele>977.5</ele>
            <time>2022-08-12T09:21:16Z</time>
         </trkpt>
         <trkpt lat="47.994812" lon="7.1295452">
            <ele>979.3</ele>
            <time>2022-08-12T09:21:19Z</time>
         </trkpt>
         <trkpt lat="47.9944954" lon="7.1294422">
            <ele>982.6</ele>
            <time>2022-08-12T09:21:26Z</time>
         </trkpt>
         <trkpt lat="47.9943352" lon="7.1293912">
            <ele>984.0</ele>
            <time>2022-08-12T09:21:29Z</time>
         </trkpt>
         <trkpt lat="47.994236" lon="7.1293588">
            <ele>984.9</ele>
            <time>2022-08-12T09:21:31Z</time>
         </trkpt>
         <trkpt lat="47.9941139" lon="7.1293201">
            <ele>986.6</ele>
            <time>2022-08-12T09:21:33Z</time>
         </trkpt>
         <trkpt lat="47.9939919" lon="7.129281">
            <ele>987.9</ele>
            <time>2022-08-12T09:21:36Z</time>
         </trkpt>
         <trkpt lat="47.9937515" lon="7.1292028">
            <ele>990.8</ele>
            <time>2022-08-12T09:21:41Z</time>
         </trkpt>
         <trkpt lat="47.9936218" lon="7.1291881">
            <ele>992.4</ele>
            <time>2022-08-12T09:21:43Z</time>
         </trkpt>
         <trkpt lat="47.9935074" lon="7.1291962">
            <ele>993.7</ele>
            <time>2022-08-12T09:21:46Z</time>
         </trkpt>
         <trkpt lat="47.9932899" lon="7.1292119">
            <ele>996.4</ele>
            <time>2022-08-12T09:21:50Z</time>
         </trkpt>
         <trkpt lat="47.9931679" lon="7.12922">
            <ele>997.8</ele>
            <time>2022-08-12T09:21:53Z</time>
         </trkpt>
         <trkpt lat="47.9930496" lon="7.1292391">
            <ele>999.2</ele>
            <time>2022-08-12T09:21:55Z</time>
         </trkpt>
         <trkpt lat="47.992981" lon="7.129262">
            <ele>1000.4</ele>
            <time>2022-08-12T09:21:56Z</time>
         </trkpt>
         <trkpt lat="47.992836" lon="7.1293101">
            <ele>1001.8</ele>
            <time>2022-08-12T09:21:59Z</time>
         </trkpt>
         <trkpt lat="47.9928284" lon="7.1293235">
            <ele>1002.0</ele>
            <time>2022-08-12T09:22:00Z</time>
         </trkpt>
         <trkpt lat="47.9928284" lon="7.1293235">
            <ele>1002.0</ele>
            <time>2022-08-12T09:22:00Z</time>
         </trkpt>
         <trkpt lat="47.9927902" lon="7.1294379">
            <ele>1002.5</ele>
            <time>2022-08-12T09:22:01Z</time>
         </trkpt>
         <trkpt lat="47.9926643" lon="7.1295838">
            <ele>1005.3</ele>
            <time>2022-08-12T09:22:04Z</time>
         </trkpt>
         <trkpt lat="47.99263" lon="7.129703">
            <ele>1005.4</ele>
            <time>2022-08-12T09:22:06Z</time>
         </trkpt>
         <trkpt lat="47.9925575" lon="7.1303492">
            <ele>1009.8</ele>
            <time>2022-08-12T09:22:15Z</time>
         </trkpt>
         <trkpt lat="47.992321" lon="7.1306701">
            <ele>1013.0</ele>
            <time>2022-08-12T09:22:21Z</time>
         </trkpt>
         <trkpt lat="47.992321" lon="7.1306701">
            <ele>1013.0</ele>
            <time>2022-08-12T09:22:21Z</time>
         </trkpt>
         <trkpt lat="47.9923172" lon="7.1306701">
            <ele>1012.9</ele>
            <time>2022-08-12T09:22:21Z</time>
         </trkpt>
         <trkpt lat="47.9921875" lon="7.1303601">
            <ele>1014.2</ele>
            <time>2022-08-12T09:22:26Z</time>
         </trkpt>
         <trkpt lat="47.992054" lon="7.1301951">
            <ele>1014.6</ele>
            <time>2022-08-12T09:22:30Z</time>
         </trkpt>
         <trkpt lat="47.9906807" lon="7.128653">
            <ele>1034.1</ele>
            <time>2022-08-12T09:23:04Z</time>
         </trkpt>
         <trkpt lat="47.9904327" lon="7.1284022">
            <ele>1037.5</ele>
            <time>2022-08-12T09:23:10Z</time>
         </trkpt>
         <trkpt lat="47.9896774" lon="7.1277418">
            <ele>1044.4</ele>
            <time>2022-08-12T09:23:28Z</time>
         </trkpt>
         <trkpt lat="47.9892502" lon="7.127286">
            <ele>1048.9</ele>
            <time>2022-08-12T09:23:38Z</time>
         </trkpt>
         <trkpt lat="47.9887695" lon="7.1268449">
            <ele>1054.0</ele>
            <time>2022-08-12T09:23:50Z</time>
         </trkpt>
         <trkpt lat="47.9886513" lon="7.126368">
            <ele>1057.6</ele>
            <time>2022-08-12T09:23:56Z</time>
         </trkpt>
         <trkpt lat="47.9888039" lon="7.1257181">
            <ele>1061.2</ele>
            <time>2022-08-12T09:24:06Z</time>
         </trkpt>
         <trkpt lat="47.9888954" lon="7.125082">
            <ele>1064.9</ele>
            <time>2022-08-12T09:24:14Z</time>
         </trkpt>
         <trkpt lat="47.988945" lon="7.1248841">
            <ele>1065.8</ele>
            <time>2022-08-12T09:24:17Z</time>
         </trkpt>
         <trkpt lat="47.9890747" lon="7.124609">
            <ele>1068.0</ele>
            <time>2022-08-12T09:24:22Z</time>
         </trkpt>
         <trkpt lat="47.9893608" lon="7.1241541">
            <ele>1070.9</ele>
            <time>2022-08-12T09:24:30Z</time>
         </trkpt>
         <trkpt lat="47.989357" lon="7.1239667">
            <ele>1072.0</ele>
            <time>2022-08-12T09:24:33Z</time>
         </trkpt>
         <trkpt lat="47.989357" lon="7.1239667">
            <ele>1072.0</ele>
            <time>2022-08-12T09:24:33Z</time>
         </trkpt>
         <trkpt lat="47.9895287" lon="7.1237402">
            <ele>1074.0</ele>
            <time>2022-08-12T09:24:37Z</time>
         </trkpt>
         <trkpt lat="47.9896507" lon="7.1236038">
            <ele>1075.1</ele>
            <time>2022-08-12T09:24:40Z</time>
         </trkpt>
         <trkpt lat="47.9897575" lon="7.1235251">
            <ele>1076.7</ele>
            <time>2022-08-12T09:24:43Z</time>
         </trkpt>
         <trkpt lat="47.9898605" lon="7.1234412">
            <ele>1078.3</ele>
            <time>2022-08-12T09:24:45Z</time>
         </trkpt>
         <trkpt lat="47.9899597" lon="7.1233878">
            <ele>1079.5</ele>
            <time>2022-08-12T09:24:47Z</time>
         </trkpt>
         <trkpt lat="47.990078" lon="7.1233501">
            <ele>1081.2</ele>
            <time>2022-08-12T09:24:50Z</time>
         </trkpt>
         <trkpt lat="47.9902039" lon="7.123363">
            <ele>1082.9</ele>
            <time>2022-08-12T09:24:52Z</time>
         </trkpt>
         <trkpt lat="47.9903908" lon="7.123383">
            <ele>1085.2</ele>
            <time>2022-08-12T09:24:56Z</time>
         </trkpt>
         <trkpt lat="47.9905434" lon="7.1233988">
            <ele>1087.4</ele>
            <time>2022-08-12T09:24:59Z</time>
         </trkpt>
         <trkpt lat="47.9907265" lon="7.1234188">
            <ele>1089.5</ele>
            <time>2022-08-12T09:25:03Z</time>
         </trkpt>
         <trkpt lat="47.9908981" lon="7.123425">
            <ele>1091.1</ele>
            <time>2022-08-12T09:25:06Z</time>
         </trkpt>
         <trkpt lat="47.9910583" lon="7.1233978">
            <ele>1092.9</ele>
            <time>2022-08-12T09:25:09Z</time>
         </trkpt>
         <trkpt lat="47.991169" lon="7.1233702">
            <ele>1093.8</ele>
            <time>2022-08-12T09:25:11Z</time>
         </trkpt>
         <trkpt lat="47.9913864" lon="7.1232901">
            <ele>1096.5</ele>
            <time>2022-08-12T09:25:16Z</time>
         </trkpt>
         <trkpt lat="47.9915466" lon="7.1231279">
            <ele>1098.6</ele>
            <time>2022-08-12T09:25:20Z</time>
         </trkpt>
         <trkpt lat="47.9917068" lon="7.1229701">
            <ele>1100.7</ele>
            <time>2022-08-12T09:25:24Z</time>
         </trkpt>
         <trkpt lat="47.9918442" lon="7.1228299">
            <ele>1102.6</ele>
            <time>2022-08-12T09:25:27Z</time>
         </trkpt>
         <trkpt lat="47.9919739" lon="7.122673">
            <ele>1105.0</ele>
            <time>2022-08-12T09:25:30Z</time>
         </trkpt>
         <trkpt lat="47.9920044" lon="7.1225719">
            <ele>1106.5</ele>
            <time>2022-08-12T09:25:32Z</time>
         </trkpt>
         <trkpt lat="47.9919624" lon="7.1223879">
            <ele>1107.6</ele>
            <time>2022-08-12T09:25:34Z</time>
         </trkpt>
         <trkpt lat="47.9918709" lon="7.1221638">
            <ele>1109.6</ele>
            <time>2022-08-12T09:25:38Z</time>
         </trkpt>
         <trkpt lat="47.9916954" lon="7.1220942">
            <ele>1112.2</ele>
            <time>2022-08-12T09:25:42Z</time>
         </trkpt>
         <trkpt lat="47.9915276" lon="7.1220269">
            <ele>1114.4</ele>
            <time>2022-08-12T09:25:45Z</time>
         </trkpt>
         <trkpt lat="47.9913788" lon="7.1219668">
            <ele>1116.2</ele>
            <time>2022-08-12T09:25:48Z</time>
         </trkpt>
         <trkpt lat="47.9911919" lon="7.1218648">
            <ele>1118.1</ele>
            <time>2022-08-12T09:25:52Z</time>
         </trkpt>
         <trkpt lat="47.9909935" lon="7.1217322">
            <ele>1119.2</ele>
            <time>2022-08-12T09:25:57Z</time>
         </trkpt>
         <trkpt lat="47.9907608" lon="7.121572">
            <ele>1119.9</ele>
            <time>2022-08-12T09:26:02Z</time>
         </trkpt>
         <trkpt lat="47.9905052" lon="7.121398">
            <ele>1121.2</ele>
            <time>2022-08-12T09:26:07Z</time>
         </trkpt>
         <trkpt lat="47.9902534" lon="7.1212559">
            <ele>1122.3</ele>
            <time>2022-08-12T09:26:13Z</time>
         </trkpt>
         <trkpt lat="47.9899826" lon="7.121161">
            <ele>1124.0</ele>
            <time>2022-08-12T09:26:18Z</time>
         </trkpt>
         <trkpt lat="47.9896164" lon="7.1210341">
            <ele>1126.0</ele>
            <time>2022-08-12T09:26:26Z</time>
         </trkpt>
         <trkpt lat="47.9893494" lon="7.1209412">
            <ele>1126.2</ele>
            <time>2022-08-12T09:26:31Z</time>
         </trkpt>
         <trkpt lat="47.9891891" lon="7.1208229">
            <ele>1127.3</ele>
            <time>2022-08-12T09:26:35Z</time>
         </trkpt>
         <trkpt lat="47.9890213" lon="7.1207008">
            <ele>1129.6</ele>
            <time>2022-08-12T09:26:39Z</time>
         </trkpt>
         <trkpt lat="47.9887085" lon="7.1205311">
            <ele>1131.7</ele>
            <time>2022-08-12T09:26:45Z</time>
         </trkpt>
         <trkpt lat="47.9885063" lon="7.12045">
            <ele>1132.6</ele>
            <time>2022-08-12T09:26:49Z</time>
         </trkpt>
         <trkpt lat="47.9882355" lon="7.1203861">
            <ele>1134.0</ele>
            <time>2022-08-12T09:26:55Z</time>
         </trkpt>
         <trkpt lat="47.9879951" lon="7.1204281">
            <ele>1135.6</ele>
            <time>2022-08-12T09:27:00Z</time>
         </trkpt>
         <trkpt lat="47.9877396" lon="7.1204729">
            <ele>1137.5</ele>
            <time>2022-08-12T09:27:05Z</time>
         </trkpt>
         <trkpt lat="47.9875031" lon="7.1205149">
            <ele>1139.5</ele>
            <time>2022-08-12T09:27:10Z</time>
         </trkpt>
         <trkpt lat="47.9873352" lon="7.1205449">
            <ele>1140.9</ele>
            <time>2022-08-12T09:27:13Z</time>
         </trkpt>
         <trkpt lat="47.9871483" lon="7.1205769">
            <ele>1142.3</ele>
            <time>2022-08-12T09:27:17Z</time>
         </trkpt>
         <trkpt lat="47.986927" lon="7.1206169">
            <ele>1144.3</ele>
            <time>2022-08-12T09:27:21Z</time>
         </trkpt>
         <trkpt lat="47.986702" lon="7.120657">
            <ele>1146.1</ele>
            <time>2022-08-12T09:27:26Z</time>
         </trkpt>
         <trkpt lat="47.986515" lon="7.1206889">
            <ele>1147.7</ele>
            <time>2022-08-12T09:27:30Z</time>
         </trkpt>
         <trkpt lat="47.9863014" lon="7.1207271">
            <ele>1150.4</ele>
            <time>2022-08-12T09:27:34Z</time>
         </trkpt>
         <trkpt lat="47.9861221" lon="7.120759">
            <ele>1152.1</ele>
            <time>2022-08-12T09:27:38Z</time>
         </trkpt>
         <trkpt lat="47.9858589" lon="7.1208048">
            <ele>1154.7</ele>
            <time>2022-08-12T09:27:43Z</time>
         </trkpt>
         <trkpt lat="47.9856186" lon="7.1208482">
            <ele>1156.8</ele>
            <time>2022-08-12T09:27:48Z</time>
         </trkpt>
         <trkpt lat="47.9853859" lon="7.1209269">
            <ele>1158.7</ele>
            <time>2022-08-12T09:27:53Z</time>
         </trkpt>
         <trkpt lat="47.9851456" lon="7.1210022">
            <ele>1162.1</ele>
            <time>2022-08-12T09:27:57Z</time>
         </trkpt>
         <trkpt lat="47.985054" lon="7.1210332">
            <ele>1163.0</ele>
            <time>2022-08-12T09:27:59Z</time>
         </trkpt>
      </trkseg>
   </trk>
</gpx>